sensor_id;sensor_type;location;lat;lon;timestamp;P1;durP1;ratioP1;P2;durP2;ratioP2
54502;SDS011;40411;50.090;21.954;2023-07-02T00:00:04;43.20;;;31.50;;
54502;SDS011;40411;50.090;21.954;2023-07-02T00:02:35;46.50;;;30.98;;
54502;SDS011;40411;50.090;21.954;2023-07-02T00:05:02;39.20;;;29.75;;
54502;SDS011;40411;50.090;21.954;2023-07-02T00:07:28;39.45;;;29.88;;
54502;SDS011;40411;50.090;21.954;2023-07-02T00:09:53;39.25;;;29.77;;
54502;SDS011;40411;50.090;21.954;2023-07-02T00:12:19;39.33;;;29.60;;
54502;SDS011;40411;50.090;21.954;2023-07-02T00:14:45;38.00;;;27.17;;
54502;SDS011;40411;50.090;21.954;2023-07-02T00:17:11;41.40;;;27.30;;
54502;SDS011;40411;50.090;21.954;2023-07-02T00:19:38;37.10;;;27.75;;
54502;SDS011;40411;50.090;21.954;2023-07-02T00:22:07;32.13;;;25.92;;
54502;SDS011;40411;50.090;21.954;2023-07-02T00:24:34;34.47;;;25.95;;
54502;SDS011;40411;50.090;21.954;2023-07-02T00:27:01;36.58;;;26.52;;
54502;SDS011;40411;50.090;21.954;2023-07-02T00:29:27;36.65;;;26.42;;
54502;SDS011;40411;50.090;21.954;2023-07-02T00:31:53;35.92;;;27.90;;
54502;SDS011;40411;50.090;21.954;2023-07-02T00:34:18;40.40;;;29.60;;
54502;SDS011;40411;50.090;21.954;2023-07-02T00:36:45;36.63;;;26.55;;
54502;SDS011;40411;50.090;21.954;2023-07-02T00:39:11;36.80;;;22.63;;
54502;SDS011;40411;50.090;21.954;2023-07-02T00:41:41;31.10;;;22.40;;
54502;SDS011;40411;50.090;21.954;2023-07-02T00:44:08;34.42;;;25.27;;
54502;SDS011;40411;50.090;21.954;2023-07-02T00:46:36;32.08;;;24.05;;
54502;SDS011;40411;50.090;21.954;2023-07-02T00:49:02;32.38;;;23.73;;
54502;SDS011;40411;50.090;21.954;2023-07-02T00:51:30;35.80;;;27.33;;
54502;SDS011;40411;50.090;21.954;2023-07-02T00:53:57;37.40;;;28.17;;
54502;SDS011;40411;50.090;21.954;2023-07-02T00:56:24;42.53;;;30.73;;
54502;SDS011;40411;50.090;21.954;2023-07-02T00:58:51;39.70;;;29.13;;
54502;SDS011;40411;50.090;21.954;2023-07-02T01:01:20;41.65;;;30.42;;
54502;SDS011;40411;50.090;21.954;2023-07-02T01:06:30;39.93;;;29.57;;
54502;SDS011;40411;50.090;21.954;2023-07-02T01:08:58;38.05;;;29.85;;
54502;SDS011;40411;50.090;21.954;2023-07-02T01:11:27;42.83;;;30.02;;
54502;SDS011;40411;50.090;21.954;2023-07-02T01:13:57;42.67;;;30.00;;
54502;SDS011;40411;50.090;21.954;2023-07-02T01:16:27;35.83;;;28.03;;
54502;SDS011;40411;50.090;21.954;2023-07-02T01:18:56;35.03;;;25.88;;
54502;SDS011;40411;50.090;21.954;2023-07-02T01:21:23;39.00;;;24.95;;
54502;SDS011;40411;50.090;21.954;2023-07-02T01:23:50;32.83;;;25.73;;
54502;SDS011;40411;50.090;21.954;2023-07-02T01:26:16;38.53;;;27.55;;
54502;SDS011;40411;50.090;21.954;2023-07-02T01:28:42;40.78;;;28.20;;
54502;SDS011;40411;50.090;21.954;2023-07-02T01:31:08;31.73;;;25.42;;
54502;SDS011;40411;50.090;21.954;2023-07-02T01:33:35;38.35;;;28.48;;
54502;SDS011;40411;50.090;21.954;2023-07-02T01:36:01;37.92;;;29.20;;
54502;SDS011;40411;50.090;21.954;2023-07-02T01:38:26;36.33;;;28.83;;
54502;SDS011;40411;50.090;21.954;2023-07-02T01:40:53;37.15;;;27.77;;
54502;SDS011;40411;50.090;21.954;2023-07-02T01:43:19;38.97;;;27.65;;
54502;SDS011;40411;50.090;21.954;2023-07-02T01:45:45;38.78;;;27.88;;
54502;SDS011;40411;50.090;21.954;2023-07-02T01:48:10;41.40;;;27.92;;
54502;SDS011;40411;50.090;21.954;2023-07-02T01:50:36;40.78;;;27.90;;
54502;SDS011;40411;50.090;21.954;2023-07-02T01:53:02;39.75;;;28.60;;
54502;SDS011;40411;50.090;21.954;2023-07-02T01:55:28;37.25;;;27.27;;
54502;SDS011;40411;50.090;21.954;2023-07-02T01:57:54;34.13;;;26.65;;
54502;SDS011;40411;50.090;21.954;2023-07-02T02:00:19;43.65;;;28.80;;
54502;SDS011;40411;50.090;21.954;2023-07-02T02:02:45;39.22;;;26.98;;
54502;SDS011;40411;50.090;21.954;2023-07-02T02:05:11;38.63;;;27.67;;
54502;SDS011;40411;50.090;21.954;2023-07-02T02:07:37;38.20;;;29.02;;
54502;SDS011;40411;50.090;21.954;2023-07-02T02:10:03;38.00;;;27.63;;
54502;SDS011;40411;50.090;21.954;2023-07-02T02:12:29;36.13;;;27.17;;
54502;SDS011;40411;50.090;21.954;2023-07-02T02:14:57;36.88;;;26.13;;
54502;SDS011;40411;50.090;21.954;2023-07-02T02:17:22;38.72;;;27.45;;
54502;SDS011;40411;50.090;21.954;2023-07-02T02:19:49;34.65;;;25.67;;
54502;SDS011;40411;50.090;21.954;2023-07-02T02:22:15;34.17;;;25.73;;
54502;SDS011;40411;50.090;21.954;2023-07-02T02:24:42;35.90;;;27.77;;
54502;SDS011;40411;50.090;21.954;2023-07-02T02:27:07;43.72;;;31.27;;
54502;SDS011;40411;50.090;21.954;2023-07-02T02:29:34;45.97;;;33.33;;
54502;SDS011;40411;50.090;21.954;2023-07-02T02:32:00;49.83;;;33.95;;
54502;SDS011;40411;50.090;21.954;2023-07-02T02:34:26;44.83;;;33.08;;
54502;SDS011;40411;50.090;21.954;2023-07-02T02:36:54;44.40;;;31.35;;
54502;SDS011;40411;50.090;21.954;2023-07-02T02:39:21;42.45;;;30.27;;
54502;SDS011;40411;50.090;21.954;2023-07-02T02:41:47;40.25;;;30.40;;
54502;SDS011;40411;50.090;21.954;2023-07-02T02:44:17;46.60;;;31.33;;
54502;SDS011;40411;50.090;21.954;2023-07-02T02:46:43;45.75;;;30.65;;
54502;SDS011;40411;50.090;21.954;2023-07-02T02:49:09;37.25;;;29.05;;
54502;SDS011;40411;50.090;21.954;2023-07-02T02:51:34;42.65;;;31.63;;
54502;SDS011;40411;50.090;21.954;2023-07-02T02:54:00;45.42;;;31.17;;
54502;SDS011;40411;50.090;21.954;2023-07-02T02:56:28;40.75;;;31.15;;
54502;SDS011;40411;50.090;21.954;2023-07-02T02:58:53;38.70;;;28.33;;
54502;SDS011;40411;50.090;21.954;2023-07-02T03:01:19;35.35;;;26.35;;
54502;SDS011;40411;50.090;21.954;2023-07-02T03:03:45;36.50;;;27.00;;
54502;SDS011;40411;50.090;21.954;2023-07-02T03:06:12;47.25;;;28.60;;
54502;SDS011;40411;50.090;21.954;2023-07-02T03:08:40;34.40;;;25.70;;
54502;SDS011;40411;50.090;21.954;2023-07-02T03:11:06;37.75;;;25.15;;
54502;SDS011;40411;50.090;21.954;2023-07-02T03:13:32;30.92;;;22.65;;
54502;SDS011;40411;50.090;21.954;2023-07-02T03:15:58;25.10;;;22.17;;
54502;SDS011;40411;50.090;21.954;2023-07-02T03:18:24;29.75;;;23.27;;
54502;SDS011;40411;50.090;21.954;2023-07-02T03:20:50;33.72;;;24.30;;
54502;SDS011;40411;50.090;21.954;2023-07-02T03:23:16;34.25;;;25.00;;
54502;SDS011;40411;50.090;21.954;2023-07-02T03:25:42;34.95;;;26.27;;
54502;SDS011;40411;50.090;21.954;2023-07-02T03:28:08;40.80;;;26.50;;
54502;SDS011;40411;50.090;21.954;2023-07-02T03:30:33;37.17;;;28.38;;
54502;SDS011;40411;50.090;21.954;2023-07-02T03:32:59;41.13;;;28.42;;
54502;SDS011;40411;50.090;21.954;2023-07-02T03:35:25;40.28;;;29.58;;
54502;SDS011;40411;50.090;21.954;2023-07-02T03:37:51;39.03;;;28.98;;
54502;SDS011;40411;50.090;21.954;2023-07-02T03:40:16;39.58;;;29.10;;
54502;SDS011;40411;50.090;21.954;2023-07-02T03:42:42;41.03;;;30.45;;
54502;SDS011;40411;50.090;21.954;2023-07-02T03:45:08;45.80;;;30.13;;
54502;SDS011;40411;50.090;21.954;2023-07-02T03:47:35;40.70;;;28.60;;
54502;SDS011;40411;50.090;21.954;2023-07-02T03:50:01;44.53;;;30.15;;
54502;SDS011;40411;50.090;21.954;2023-07-02T03:52:27;51.25;;;31.30;;
54502;SDS011;40411;50.090;21.954;2023-07-02T03:54:52;34.75;;;26.88;;
54502;SDS011;40411;50.090;21.954;2023-07-02T03:57:18;30.80;;;23.40;;
54502;SDS011;40411;50.090;21.954;2023-07-02T03:59:44;35.72;;;25.52;;
54502;SDS011;40411;50.090;21.954;2023-07-02T04:02:09;31.58;;;24.02;;
54502;SDS011;40411;50.090;21.954;2023-07-02T04:04:35;35.25;;;22.08;;
54502;SDS011;40411;50.090;21.954;2023-07-02T04:07:01;38.30;;;20.73;;
54502;SDS011;40411;50.090;21.954;2023-07-02T04:09:27;25.02;;;19.50;;
54502;SDS011;40411;50.090;21.954;2023-07-02T04:11:53;24.25;;;19.05;;
54502;SDS011;40411;50.090;21.954;2023-07-02T04:14:19;29.48;;;19.85;;
54502;SDS011;40411;50.090;21.954;2023-07-02T04:16:45;25.33;;;19.73;;
54502;SDS011;40411;50.090;21.954;2023-07-02T04:19:11;26.75;;;19.35;;
54502;SDS011;40411;50.090;21.954;2023-07-02T04:21:37;27.73;;;19.17;;
54502;SDS011;40411;50.090;21.954;2023-07-02T04:24:03;23.50;;;18.40;;
54502;SDS011;40411;50.090;21.954;2023-07-02T04:26:28;20.75;;;16.63;;
54502;SDS011;40411;50.090;21.954;2023-07-02T04:28:55;24.83;;;16.58;;
54502;SDS011;40411;50.090;21.954;2023-07-02T04:31:21;29.08;;;16.85;;
54502;SDS011;40411;50.090;21.954;2023-07-02T04:33:47;23.75;;;16.33;;
54502;SDS011;40411;50.090;21.954;2023-07-02T04:36:12;23.17;;;16.73;;
54502;SDS011;40411;50.090;21.954;2023-07-02T04:38:38;21.25;;;16.38;;
54502;SDS011;40411;50.090;21.954;2023-07-02T04:41:04;27.65;;;15.60;;
54502;SDS011;40411;50.090;21.954;2023-07-02T04:43:31;21.92;;;15.25;;
54502;SDS011;40411;50.090;21.954;2023-07-02T04:45:58;21.83;;;16.15;;
54502;SDS011;40411;50.090;21.954;2023-07-02T04:48:24;23.05;;;17.33;;
54502;SDS011;40411;50.090;21.954;2023-07-02T04:50:49;28.58;;;16.02;;
54502;SDS011;40411;50.090;21.954;2023-07-02T04:53:16;23.95;;;15.95;;
54502;SDS011;40411;50.090;21.954;2023-07-02T04:55:41;24.13;;;16.67;;
54502;SDS011;40411;50.090;21.954;2023-07-02T04:58:08;21.48;;;16.52;;
54502;SDS011;40411;50.090;21.954;2023-07-02T05:00:34;19.55;;;16.30;;
54502;SDS011;40411;50.090;21.954;2023-07-02T05:03:00;19.27;;;16.17;;
54502;SDS011;40411;50.090;21.954;2023-07-02T05:05:26;20.00;;;15.98;;
54502;SDS011;40411;50.090;21.954;2023-07-02T05:07:52;21.95;;;16.83;;
54502;SDS011;40411;50.090;21.954;2023-07-02T05:10:19;20.33;;;15.95;;
54502;SDS011;40411;50.090;21.954;2023-07-02T05:12:46;20.80;;;16.17;;
54502;SDS011;40411;50.090;21.954;2023-07-02T05:15:11;20.98;;;16.67;;
54502;SDS011;40411;50.090;21.954;2023-07-02T05:17:38;18.95;;;16.05;;
54502;SDS011;40411;50.090;21.954;2023-07-02T05:20:03;21.75;;;15.60;;
54502;SDS011;40411;50.090;21.954;2023-07-02T05:22:30;19.00;;;15.38;;
54502;SDS011;40411;50.090;21.954;2023-07-02T05:24:59;17.70;;;14.43;;
54502;SDS011;40411;50.090;21.954;2023-07-02T05:27:25;20.20;;;14.75;;
54502;SDS011;40411;50.090;21.954;2023-07-02T05:29:50;20.27;;;15.07;;
54502;SDS011;40411;50.090;21.954;2023-07-02T05:32:16;19.20;;;14.30;;
54502;SDS011;40411;50.090;21.954;2023-07-02T05:34:42;22.17;;;15.15;;
54502;SDS011;40411;50.090;21.954;2023-07-02T05:37:08;18.88;;;13.90;;
54502;SDS011;40411;50.090;21.954;2023-07-02T05:39:34;16.35;;;13.80;;
54502;SDS011;40411;50.090;21.954;2023-07-02T05:42:00;18.40;;;14.45;;
54502;SDS011;40411;50.090;21.954;2023-07-02T05:44:25;19.30;;;13.85;;
54502;SDS011;40411;50.090;21.954;2023-07-02T05:46:51;18.90;;;13.63;;
54502;SDS011;40411;50.090;21.954;2023-07-02T05:49:17;17.92;;;13.50;;
54502;SDS011;40411;50.090;21.954;2023-07-02T05:51:43;16.52;;;12.90;;
54502;SDS011;40411;50.090;21.954;2023-07-02T05:54:08;18.92;;;12.90;;
54502;SDS011;40411;50.090;21.954;2023-07-02T05:56:35;16.90;;;13.27;;
54502;SDS011;40411;50.090;21.954;2023-07-02T05:59:00;17.83;;;12.25;;
54502;SDS011;40411;50.090;21.954;2023-07-02T06:01:26;14.90;;;12.15;;
54502;SDS011;40411;50.090;21.954;2023-07-02T06:03:52;19.20;;;13.18;;
54502;SDS011;40411;50.090;21.954;2023-07-02T06:06:18;16.75;;;12.35;;
54502;SDS011;40411;50.090;21.954;2023-07-02T06:08:44;16.92;;;12.77;;
54502;SDS011;40411;50.090;21.954;2023-07-02T06:11:10;17.58;;;13.48;;
54502;SDS011;40411;50.090;21.954;2023-07-02T06:13:36;13.57;;;11.95;;
54502;SDS011;40411;50.090;21.954;2023-07-02T06:16:02;15.90;;;12.02;;
54502;SDS011;40411;50.090;21.954;2023-07-02T06:18:28;14.38;;;11.15;;
54502;SDS011;40411;50.090;21.954;2023-07-02T06:20:54;14.93;;;10.73;;
54502;SDS011;40411;50.090;21.954;2023-07-02T06:23:19;13.02;;;10.48;;
54502;SDS011;40411;50.090;21.954;2023-07-02T06:25:45;13.15;;;11.07;;
54502;SDS011;40411;50.090;21.954;2023-07-02T06:28:11;15.48;;;10.40;;
54502;SDS011;40411;50.090;21.954;2023-07-02T06:30:37;16.27;;;10.63;;
54502;SDS011;40411;50.090;21.954;2023-07-02T06:33:03;14.43;;;10.30;;
54502;SDS011;40411;50.090;21.954;2023-07-02T06:35:29;17.25;;;10.43;;
54502;SDS011;40411;50.090;21.954;2023-07-02T06:37:55;16.35;;;11.50;;
54502;SDS011;40411;50.090;21.954;2023-07-02T06:40:21;13.57;;;10.60;;
54502;SDS011;40411;50.090;21.954;2023-07-02T06:42:47;15.88;;;9.57;;
54502;SDS011;40411;50.090;21.954;2023-07-02T06:45:13;12.57;;;9.52;;
54502;SDS011;40411;50.090;21.954;2023-07-02T06:47:39;11.60;;;9.35;;
54502;SDS011;40411;50.090;21.954;2023-07-02T06:50:05;14.35;;;9.60;;
54502;SDS011;40411;50.090;21.954;2023-07-02T06:52:31;15.35;;;8.52;;
54502;SDS011;40411;50.090;21.954;2023-07-02T06:54:57;11.57;;;8.63;;
54502;SDS011;40411;50.090;21.954;2023-07-02T06:57:23;11.00;;;8.73;;
54502;SDS011;40411;50.090;21.954;2023-07-02T06:59:49;13.40;;;8.95;;
54502;SDS011;40411;50.090;21.954;2023-07-02T07:02:15;12.93;;;8.57;;
54502;SDS011;40411;50.090;21.954;2023-07-02T07:04:41;10.45;;;8.27;;
54502;SDS011;40411;50.090;21.954;2023-07-02T07:07:07;11.40;;;8.20;;
54502;SDS011;40411;50.090;21.954;2023-07-02T07:09:33;14.57;;;7.97;;
54502;SDS011;40411;50.090;21.954;2023-07-02T07:11:58;12.55;;;7.05;;
54502;SDS011;40411;50.090;21.954;2023-07-02T07:14:24;10.48;;;7.43;;
54502;SDS011;40411;50.090;21.954;2023-07-02T07:16:50;11.70;;;8.02;;
54502;SDS011;40411;50.090;21.954;2023-07-02T07:19:16;12.30;;;6.90;;
54502;SDS011;40411;50.090;21.954;2023-07-02T07:21:42;13.20;;;7.88;;
54502;SDS011;40411;50.090;21.954;2023-07-02T07:24:09;13.65;;;7.28;;
54502;SDS011;40411;50.090;21.954;2023-07-02T07:26:35;12.02;;;7.53;;
54502;SDS011;40411;50.090;21.954;2023-07-02T07:29:01;11.25;;;7.22;;
54502;SDS011;40411;50.090;21.954;2023-07-02T07:31:26;10.00;;;6.93;;
54502;SDS011;40411;50.090;21.954;2023-07-02T07:33:52;12.95;;;7.03;;
54502;SDS011;40411;50.090;21.954;2023-07-02T07:36:18;10.07;;;6.53;;
54502;SDS011;40411;50.090;21.954;2023-07-02T07:38:44;9.95;;;6.53;;
54502;SDS011;40411;50.090;21.954;2023-07-02T07:41:10;11.18;;;6.35;;
54502;SDS011;40411;50.090;21.954;2023-07-02T07:43:36;9.70;;;6.57;;
54502;SDS011;40411;50.090;21.954;2023-07-02T07:46:02;11.20;;;7.43;;
54502;SDS011;40411;50.090;21.954;2023-07-02T07:48:28;10.65;;;6.78;;
54502;SDS011;40411;50.090;21.954;2023-07-02T07:50:54;11.68;;;6.80;;
54502;SDS011;40411;50.090;21.954;2023-07-02T07:53:20;9.68;;;6.75;;
54502;SDS011;40411;50.090;21.954;2023-07-02T07:55:46;12.70;;;6.63;;
54502;SDS011;40411;50.090;21.954;2023-07-02T07:58:12;10.70;;;6.63;;
54502;SDS011;40411;50.090;21.954;2023-07-02T08:00:38;8.80;;;5.20;;
54502;SDS011;40411;50.090;21.954;2023-07-02T08:03:04;12.07;;;5.40;;
54502;SDS011;40411;50.090;21.954;2023-07-02T08:05:30;9.73;;;5.40;;
54502;SDS011;40411;50.090;21.954;2023-07-02T08:07:57;11.38;;;5.10;;
54502;SDS011;40411;50.090;21.954;2023-07-02T08:10:23;10.88;;;5.05;;
54502;SDS011;40411;50.090;21.954;2023-07-02T08:12:50;9.82;;;5.38;;
54502;SDS011;40411;50.090;21.954;2023-07-02T08:15:19;10.43;;;5.40;;
54502;SDS011;40411;50.090;21.954;2023-07-02T08:17:45;10.07;;;5.10;;
54502;SDS011;40411;50.090;21.954;2023-07-02T08:20:11;9.98;;;5.30;;
54502;SDS011;40411;50.090;21.954;2023-07-02T08:22:37;8.50;;;5.35;;
54502;SDS011;40411;50.090;21.954;2023-07-02T08:25:04;10.57;;;5.07;;
54502;SDS011;40411;50.090;21.954;2023-07-02T08:27:31;10.25;;;6.07;;
54502;SDS011;40411;50.090;21.954;2023-07-02T08:29:57;10.68;;;5.90;;
54502;SDS011;40411;50.090;21.954;2023-07-02T08:32:23;9.60;;;5.40;;
54502;SDS011;40411;50.090;21.954;2023-07-02T08:34:49;9.05;;;6.13;;
54502;SDS011;40411;50.090;21.954;2023-07-02T08:37:19;8.55;;;4.93;;
54502;SDS011;40411;50.090;21.954;2023-07-02T08:39:46;8.50;;;5.05;;
54502;SDS011;40411;50.090;21.954;2023-07-02T08:42:15;10.73;;;5.38;;
54502;SDS011;40411;50.090;21.954;2023-07-02T08:44:41;12.77;;;5.43;;
54502;SDS011;40411;50.090;21.954;2023-07-02T08:47:11;10.00;;;5.43;;
54502;SDS011;40411;50.090;21.954;2023-07-02T08:49:36;10.73;;;5.50;;
54502;SDS011;40411;50.090;21.954;2023-07-02T08:52:03;9.50;;;5.10;;
54502;SDS011;40411;50.090;21.954;2023-07-02T08:54:28;8.57;;;5.03;;
54502;SDS011;40411;50.090;21.954;2023-07-02T08:56:54;8.85;;;4.78;;
54502;SDS011;40411;50.090;21.954;2023-07-02T08:59:21;8.25;;;4.88;;
54502;SDS011;40411;50.090;21.954;2023-07-02T09:01:51;10.52;;;5.20;;
54502;SDS011;40411;50.090;21.954;2023-07-02T09:04:21;11.38;;;5.15;;
54502;SDS011;40411;50.090;21.954;2023-07-02T09:07:02;8.82;;;5.03;;
54502;SDS011;40411;50.090;21.954;2023-07-02T09:09:32;8.80;;;4.90;;
54502;SDS011;40411;50.090;21.954;2023-07-02T09:11:58;7.93;;;4.97;;
54502;SDS011;40411;50.090;21.954;2023-07-02T09:14:25;7.75;;;4.80;;
54502;SDS011;40411;50.090;21.954;2023-07-02T09:17:03;7.57;;;5.15;;
54502;SDS011;40411;50.090;21.954;2023-07-02T09:19:34;7.85;;;5.00;;
54502;SDS011;40411;50.090;21.954;2023-07-02T09:22:01;11.48;;;5.40;;
54502;SDS011;40411;50.090;21.954;2023-07-02T09:24:29;8.18;;;5.35;;
54502;SDS011;40411;50.090;21.954;2023-07-02T09:26:57;7.75;;;4.88;;
54502;SDS011;40411;50.090;21.954;2023-07-02T09:29:34;8.95;;;5.70;;
54502;SDS011;40411;50.090;21.954;2023-07-02T09:32:01;8.40;;;5.35;;
54502;SDS011;40411;50.090;21.954;2023-07-02T09:34:29;12.88;;;5.50;;
54502;SDS011;40411;50.090;21.954;2023-07-02T09:36:56;7.90;;;5.13;;
54502;SDS011;40411;50.090;21.954;2023-07-02T09:39:30;9.73;;;4.93;;
54502;SDS011;40411;50.090;21.954;2023-07-02T09:42:02;10.55;;;5.28;;
54502;SDS011;40411;50.090;21.954;2023-07-02T09:49:36;9.15;;;5.30;;
54502;SDS011;40411;50.090;21.954;2023-07-02T09:52:05;8.52;;;5.72;;
54502;SDS011;40411;50.090;21.954;2023-07-02T09:54:32;11.60;;;5.80;;
54502;SDS011;40411;50.090;21.954;2023-07-02T09:56:59;15.10;;;5.50;;
54502;SDS011;40411;50.090;21.954;2023-07-02T09:59:25;8.57;;;5.18;;
54502;SDS011;40411;50.090;21.954;2023-07-02T10:01:52;12.40;;;5.63;;
54502;SDS011;40411;50.090;21.954;2023-07-02T10:04:19;9.70;;;5.72;;
54502;SDS011;40411;50.090;21.954;2023-07-02T10:06:56;8.73;;;5.70;;
54502;SDS011;40411;50.090;21.954;2023-07-02T10:09:44;9.40;;;5.47;;
54502;SDS011;40411;50.090;21.954;2023-07-02T10:12:23;8.57;;;5.15;;
54502;SDS011;40411;50.090;21.954;2023-07-02T10:14:56;7.53;;;4.90;;
54502;SDS011;40411;50.090;21.954;2023-07-02T10:17:27;8.70;;;4.78;;
54502;SDS011;40411;50.090;21.954;2023-07-02T10:19:54;8.20;;;4.80;;
54502;SDS011;40411;50.090;21.954;2023-07-02T10:22:21;9.43;;;4.90;;
54502;SDS011;40411;50.090;21.954;2023-07-02T10:24:52;9.75;;;5.05;;
54502;SDS011;40411;50.090;21.954;2023-07-02T10:27:18;9.68;;;4.75;;
54502;SDS011;40411;50.090;21.954;2023-07-02T10:29:50;8.02;;;5.10;;
54502;SDS011;40411;50.090;21.954;2023-07-02T10:34:53;12.82;;;4.95;;
54502;SDS011;40411;50.090;21.954;2023-07-02T10:37:19;7.78;;;4.70;;
54502;SDS011;40411;50.090;21.954;2023-07-02T10:39:46;8.48;;;4.93;;
54502;SDS011;40411;50.090;21.954;2023-07-02T10:42:12;9.88;;;4.72;;
54502;SDS011;40411;50.090;21.954;2023-07-02T10:44:49;8.38;;;4.65;;
54502;SDS011;40411;50.090;21.954;2023-07-02T10:47:16;9.00;;;4.60;;
54502;SDS011;40411;50.090;21.954;2023-07-02T10:49:42;8.68;;;4.72;;
54502;SDS011;40411;50.090;21.954;2023-07-02T10:52:08;7.43;;;4.15;;
54502;SDS011;40411;50.090;21.954;2023-07-02T10:54:44;8.23;;;4.55;;
54502;SDS011;40411;50.090;21.954;2023-07-02T10:57:18;9.13;;;4.32;;
54502;SDS011;40411;50.090;21.954;2023-07-02T11:02:17;15.10;;;4.20;;
54502;SDS011;40411;50.090;21.954;2023-07-02T11:04:43;8.80;;;4.28;;
54502;SDS011;40411;50.090;21.954;2023-07-02T11:07:14;12.57;;;4.03;;
54502;SDS011;40411;50.090;21.954;2023-07-02T11:09:39;10.15;;;3.72;;
54502;SDS011;40411;50.090;21.954;2023-07-02T11:12:16;7.22;;;3.67;;
54502;SDS011;40411;50.090;21.954;2023-07-02T11:14:43;6.60;;;3.58;;
54502;SDS011;40411;50.090;21.954;2023-07-02T11:17:11;9.43;;;4.07;;
54502;SDS011;40411;50.090;21.954;2023-07-02T11:19:37;13.30;;;4.05;;
54502;SDS011;40411;50.090;21.954;2023-07-02T11:22:03;11.23;;;3.78;;
54502;SDS011;40411;50.090;21.954;2023-07-02T11:24:33;10.90;;;3.92;;
54502;SDS011;40411;50.090;21.954;2023-07-02T11:27:01;7.05;;;3.97;;
54502;SDS011;40411;50.090;21.954;2023-07-02T11:29:29;7.40;;;4.10;;
54502;SDS011;40411;50.090;21.954;2023-07-02T11:32:09;10.32;;;4.13;;
54502;SDS011;40411;50.090;21.954;2023-07-02T11:34:36;9.13;;;3.83;;
54502;SDS011;40411;50.090;21.954;2023-07-02T11:37:03;10.00;;;4.38;;
54502;SDS011;40411;50.090;21.954;2023-07-02T11:39:30;10.73;;;4.32;;
54502;SDS011;40411;50.090;21.954;2023-07-02T11:41:56;8.15;;;4.60;;
54502;SDS011;40411;50.090;21.954;2023-07-02T11:44:22;7.82;;;3.90;;
54502;SDS011;40411;50.090;21.954;2023-07-02T11:46:48;16.95;;;4.35;;
54502;SDS011;40411;50.090;21.954;2023-07-02T11:49:14;10.50;;;4.00;;
54502;SDS011;40411;50.090;21.954;2023-07-02T11:51:41;7.93;;;4.35;;
54502;SDS011;40411;50.090;21.954;2023-07-02T11:54:13;12.70;;;4.82;;
54502;SDS011;40411;50.090;21.954;2023-07-02T11:56:40;11.52;;;4.65;;
54502;SDS011;40411;50.090;21.954;2023-07-02T11:59:08;8.18;;;3.80;;
54502;SDS011;40411;50.090;21.954;2023-07-02T12:01:34;9.48;;;4.50;;
54502;SDS011;40411;50.090;21.954;2023-07-02T12:04:00;9.18;;;4.03;;
54502;SDS011;40411;50.090;21.954;2023-07-02T12:06:26;8.57;;;4.22;;
54502;SDS011;40411;50.090;21.954;2023-07-02T12:08:51;9.00;;;4.43;;
54502;SDS011;40411;50.090;21.954;2023-07-02T12:11:17;10.07;;;4.35;;
54502;SDS011;40411;50.090;21.954;2023-07-02T12:13:43;7.13;;;4.15;;
54502;SDS011;40411;50.090;21.954;2023-07-02T12:16:09;8.43;;;4.63;;
54502;SDS011;40411;50.090;21.954;2023-07-02T12:18:35;8.13;;;3.60;;
54502;SDS011;40411;50.090;21.954;2023-07-02T12:21:01;10.77;;;2.92;;
54502;SDS011;40411;50.090;21.954;2023-07-02T12:23:26;7.50;;;3.58;;
54502;SDS011;40411;50.090;21.954;2023-07-02T12:25:52;8.50;;;3.60;;
54502;SDS011;40411;50.090;21.954;2023-07-02T12:28:18;6.97;;;3.90;;
54502;SDS011;40411;50.090;21.954;2023-07-02T12:30:44;9.55;;;3.75;;
54502;SDS011;40411;50.090;21.954;2023-07-02T12:33:10;8.63;;;3.50;;
54502;SDS011;40411;50.090;21.954;2023-07-02T12:35:36;9.65;;;3.78;;
54502;SDS011;40411;50.090;21.954;2023-07-02T12:38:02;9.40;;;3.65;;
54502;SDS011;40411;50.090;21.954;2023-07-02T12:40:29;7.35;;;3.80;;
54502;SDS011;40411;50.090;21.954;2023-07-02T12:42:55;7.63;;;4.03;;
54502;SDS011;40411;50.090;21.954;2023-07-02T12:45:22;7.03;;;3.78;;
54502;SDS011;40411;50.090;21.954;2023-07-02T12:47:47;6.65;;;3.38;;
54502;SDS011;40411;50.090;21.954;2023-07-02T12:50:14;7.75;;;3.97;;
54502;SDS011;40411;50.090;21.954;2023-07-02T12:52:39;7.90;;;3.70;;
54502;SDS011;40411;50.090;21.954;2023-07-02T12:55:06;9.43;;;3.85;;
54502;SDS011;40411;50.090;21.954;2023-07-02T12:57:32;10.05;;;3.88;;
54502;SDS011;40411;50.090;21.954;2023-07-02T12:59:58;10.25;;;3.80;;
54502;SDS011;40411;50.090;21.954;2023-07-02T13:02:24;13.93;;;3.55;;
54502;SDS011;40411;50.090;21.954;2023-07-02T13:04:53;8.88;;;3.30;;
54502;SDS011;40411;50.090;21.954;2023-07-02T13:07:19;6.70;;;3.05;;
54502;SDS011;40411;50.090;21.954;2023-07-02T13:09:45;10.38;;;3.83;;
54502;SDS011;40411;50.090;21.954;2023-07-02T13:12:11;7.10;;;3.53;;
54502;SDS011;40411;50.090;21.954;2023-07-02T13:14:37;6.35;;;3.22;;
54502;SDS011;40411;50.090;21.954;2023-07-02T13:17:04;7.95;;;3.83;;
54502;SDS011;40411;50.090;21.954;2023-07-02T13:19:32;6.72;;;3.22;;
54502;SDS011;40411;50.090;21.954;2023-07-02T13:21:58;9.98;;;3.83;;
54502;SDS011;40411;50.090;21.954;2023-07-02T13:24:24;7.53;;;3.20;;
54502;SDS011;40411;50.090;21.954;2023-07-02T13:26:50;10.60;;;3.20;;
54502;SDS011;40411;50.090;21.954;2023-07-02T13:29:17;6.88;;;3.33;;
54502;SDS011;40411;50.090;21.954;2023-07-02T13:31:42;6.82;;;3.30;;
54502;SDS011;40411;50.090;21.954;2023-07-02T13:34:09;9.50;;;3.25;;
54502;SDS011;40411;50.090;21.954;2023-07-02T13:36:34;7.15;;;3.30;;
54502;SDS011;40411;50.090;21.954;2023-07-02T13:39:00;5.97;;;3.08;;
54502;SDS011;40411;50.090;21.954;2023-07-02T13:41:28;6.88;;;3.55;;
54502;SDS011;40411;50.090;21.954;2023-07-02T13:43:56;7.45;;;3.40;;
54502;SDS011;40411;50.090;21.954;2023-07-02T13:46:22;6.70;;;3.17;;
54502;SDS011;40411;50.090;21.954;2023-07-02T13:48:48;6.70;;;2.80;;
54502;SDS011;40411;50.090;21.954;2023-07-02T13:51:13;7.90;;;3.00;;
54502;SDS011;40411;50.090;21.954;2023-07-02T13:53:39;6.72;;;3.20;;
54502;SDS011;40411;50.090;21.954;2023-07-02T13:56:05;6.75;;;3.42;;
54502;SDS011;40411;50.090;21.954;2023-07-02T14:01:23;5.15;;;2.88;;
54502;SDS011;40411;50.090;21.954;2023-07-02T14:03:50;5.28;;;3.10;;
54502;SDS011;40411;50.090;21.954;2023-07-02T14:06:16;6.43;;;2.90;;
54502;SDS011;40411;50.090;21.954;2023-07-02T14:08:42;6.30;;;2.95;;
54502;SDS011;40411;50.090;21.954;2023-07-02T14:11:07;7.38;;;3.28;;
54502;SDS011;40411;50.090;21.954;2023-07-02T14:13:33;9.20;;;3.28;;
54502;SDS011;40411;50.090;21.954;2023-07-02T14:15:59;9.55;;;2.90;;
54502;SDS011;40411;50.090;21.954;2023-07-02T14:18:27;10.88;;;4.32;;
54502;SDS011;40411;50.090;21.954;2023-07-02T14:20:52;9.13;;;3.08;;
54502;SDS011;40411;50.090;21.954;2023-07-02T14:23:18;5.90;;;2.80;;
54502;SDS011;40411;50.090;21.954;2023-07-02T14:25:44;5.53;;;2.60;;
54502;SDS011;40411;50.090;21.954;2023-07-02T14:28:10;6.65;;;2.65;;
54502;SDS011;40411;50.090;21.954;2023-07-02T14:30:36;5.60;;;2.85;;
54502;SDS011;40411;50.090;21.954;2023-07-02T14:33:02;9.15;;;2.60;;